createdAt,value
2018-09-04T00:00:26.610Z,41.00
2018-09-04T00:01:26.577Z,38.60
2018-09-04T00:02:26.573Z,41.20
2018-09-04T00:03:26.555Z,39.20
2018-09-04T00:04:26.545Z,41.80
2018-09-04T00:05:26.615Z,38.00
2018-09-04T00:06:26.521Z,40.30
2018-09-04T00:07:26.512Z,39.50
2018-09-04T00:08:26.503Z,41.80
2018-09-04T00:09:26.489Z,38.50
2018-09-04T00:10:26.510Z,38.50
2018-09-04T00:11:26.470Z,41.70
2018-09-04T00:12:26.465Z,42.10
2018-09-04T00:13:26.458Z,40.80
2018-09-04T00:14:26.473Z,43.00
2018-09-04T00:15:26.470Z,41.00
2018-09-04T00:16:26.448Z,40.60
2018-09-04T00:17:26.405Z,43.10
2018-09-04T00:18:26.397Z,45.40
2018-09-04T00:19:26.418Z,44.40
2018-09-04T00:20:26.417Z,39.00
2018-09-04T00:21:26.372Z,45.10
2018-09-04T00:22:26.360Z,40.70
2018-09-04T00:23:26.370Z,44.00
2018-09-04T00:24:26.333Z,42.80
2018-09-04T00:25:26.343Z,40.90
2018-09-04T00:26:26.332Z,41.00
2018-09-04T00:27:26.327Z,38.90
2018-09-04T00:28:26.284Z,39.90
2018-09-04T00:29:26.273Z,37.20
2018-09-04T00:30:26.286Z,39.50
2018-09-04T00:31:26.261Z,37.80
2018-09-04T00:32:26.257Z,39.00
2018-09-04T00:33:26.238Z,37.40
2018-09-04T00:34:26.390Z,41.60
2018-09-04T00:35:26.235Z,38.20
2018-09-04T00:36:26.238Z,37.50
2018-09-04T00:37:26.213Z,39.30
2018-09-04T00:38:26.183Z,39.70
2018-09-04T00:39:26.165Z,38.20
2018-09-04T00:40:26.222Z,39.20
2018-09-04T00:41:26.176Z,41.40
2018-09-04T00:42:26.132Z,42.90
2018-09-04T00:43:26.124Z,45.10
2018-09-04T00:44:26.112Z,42.20
2018-09-04T00:45:26.137Z,43.00
2018-09-04T00:46:26.096Z,41.90
2018-09-04T00:47:26.099Z,46.40
2018-09-04T00:48:26.073Z,45.00
2018-09-04T00:49:26.060Z,48.40
2018-09-04T00:50:26.072Z,45.50
2018-09-04T00:51:26.035Z,45.40
2018-09-04T00:52:26.039Z,47.00
2018-09-04T00:53:26.022Z,43.30
2018-09-04T00:54:26.003Z,48.60
2018-09-04T00:55:26.016Z,51.10
2018-09-04T00:56:25.988Z,49.10
2018-09-04T00:57:25.991Z,48.90
2018-09-04T00:58:25.984Z,46.20
2018-09-04T00:59:25.948Z,50.50
2018-09-04T01:00:25.961Z,49.40
2018-09-04T01:01:25.946Z,43.70
2018-09-04T01:02:25.929Z,51.90
2018-09-04T01:03:25.907Z,47.70
2018-09-04T01:04:25.910Z,54.70
2018-09-04T01:05:26.507Z,50.10
2018-09-04T01:06:25.884Z,55.20
2018-09-04T01:07:25.869Z,56.70
2018-09-04T01:08:25.856Z,52.30
2018-09-04T01:09:25.883Z,55.00
2018-09-04T01:10:25.931Z,59.00
2018-09-04T01:11:25.882Z,53.80
2018-09-04T01:12:25.815Z,56.30
2018-09-04T01:13:25.812Z,51.60
2018-09-04T01:14:25.790Z,53.50
2018-09-04T01:15:25.802Z,56.80
2018-09-04T01:16:25.766Z,48.70
2018-09-04T01:17:25.753Z,50.60
2018-09-04T01:18:25.760Z,48.70
2018-09-04T01:19:25.781Z,50.30
2018-09-04T01:20:25.762Z,49.10
2018-09-04T01:21:25.738Z,51.90
2018-09-04T01:22:25.703Z,58.10
2018-09-04T01:23:25.696Z,52.30
2018-09-04T01:24:25.678Z,61.10
2018-09-04T01:25:25.693Z,60.10
2018-09-04T01:26:25.733Z,60.50
2018-09-04T01:27:25.687Z,55.00
2018-09-04T01:28:25.636Z,60.00
2018-09-04T01:29:25.627Z,57.40
2018-09-04T01:30:25.636Z,58.90
2018-09-04T01:31:25.621Z,61.60
2018-09-04T01:32:25.617Z,61.30
2018-09-04T01:33:25.602Z,55.20
2018-09-04T01:34:25.572Z,54.70
2018-09-04T01:35:25.584Z,55.90
2018-09-04T01:36:25.550Z,52.20
2018-09-04T01:37:25.543Z,56.80
2018-09-04T01:38:25.531Z,51.80
2018-09-04T01:39:25.542Z,54.30
2018-09-04T01:40:25.556Z,61.00
2018-09-04T01:41:25.506Z,53.90
2018-09-04T01:42:25.488Z,51.20
2018-09-04T01:43:25.473Z,52.20
2018-09-04T01:44:25.466Z,47.00
2018-09-04T01:45:25.464Z,49.30
2018-09-04T01:46:25.480Z,52.30
2018-09-04T01:47:25.464Z,59.10
2018-09-04T01:48:25.431Z,58.50
2018-09-04T01:49:25.428Z,57.40
2018-09-04T01:50:25.411Z,50.60
2018-09-04T01:51:25.413Z,54.70
2018-09-04T01:52:25.377Z,48.90
2018-09-04T01:53:25.398Z,55.30
2018-09-04T01:54:25.354Z,53.50
2018-09-04T01:55:25.348Z,57.80
2018-09-04T01:56:25.368Z,58.30
2018-09-04T01:57:25.344Z,59.00
2018-09-04T01:58:25.312Z,54.30
2018-09-04T01:59:25.303Z,54.00
2018-09-04T02:00:25.311Z,58.40
2018-09-04T02:01:25.300Z,52.90
2018-09-04T02:02:25.308Z,55.50
2018-09-04T02:03:25.267Z,62.90
2018-09-04T02:04:25.246Z,54.10
2018-09-04T02:05:25.245Z,50.20
2018-09-04T02:06:25.226Z,53.00
2018-09-04T02:07:25.235Z,52.70
2018-09-04T02:08:25.280Z,63.50
2018-09-04T02:09:25.206Z,53.00
2018-09-04T02:10:25.219Z,53.70
2018-09-04T02:11:25.174Z,68.50
2018-09-04T02:12:25.176Z,63.60
2018-09-04T02:13:25.184Z,64.40
2018-09-04T02:14:25.166Z,68.60
2018-09-04T02:15:25.166Z,73.90
2018-09-04T02:16:25.120Z,84.30
2018-09-04T02:17:25.110Z,70.60
2018-09-04T02:18:25.120Z,66.00
2018-09-04T02:19:25.087Z,57.00
2018-09-04T02:20:25.077Z,59.40
2018-09-04T02:21:25.096Z,70.80
2018-09-04T02:22:25.055Z,71.60
2018-09-04T02:23:25.076Z,75.10
2018-09-04T02:24:25.036Z,73.00
2018-09-04T02:25:25.027Z,73.00
2018-09-04T02:26:25.011Z,64.30
2018-09-04T02:27:25.024Z,63.70
2018-09-04T02:28:25.019Z,73.50
2018-09-04T02:29:24.981Z,66.80
2018-09-04T02:30:24.972Z,75.10
2018-09-04T02:31:24.957Z,70.60
2018-09-04T02:32:24.946Z,59.40
2018-09-04T02:33:24.972Z,73.20
2018-09-04T02:34:24.960Z,61.10
2018-09-04T02:35:24.921Z,69.00
2018-09-04T02:36:24.905Z,71.10
2018-09-04T02:37:24.914Z,60.70
2018-09-04T02:38:24.905Z,57.10
2018-09-04T02:39:24.871Z,58.40
2018-09-04T02:40:24.874Z,70.20
2018-09-04T02:41:24.868Z,59.00
2018-09-04T02:42:24.862Z,65.60
2018-09-04T02:43:24.854Z,77.40
2018-09-04T02:44:24.820Z,72.90
2018-09-04T02:45:24.807Z,60.30
2018-09-04T02:46:24.802Z,70.70
2018-09-04T02:47:24.787Z,72.20
2018-09-04T02:48:24.801Z,76.10
2018-09-04T02:49:24.770Z,72.70
2018-09-04T02:50:24.754Z,81.80
2018-09-04T02:51:24.746Z,71.40
2018-09-04T02:52:24.735Z,82.40
2018-09-04T02:53:24.747Z,76.30
2018-09-04T02:54:24.713Z,81.20
2018-09-04T02:55:24.707Z,79.30
2018-09-04T02:56:24.718Z,89.20
2018-09-04T02:57:24.688Z,91.20
2018-09-04T02:58:24.691Z,88.90
2018-09-04T02:59:24.657Z,99.70
2018-09-04T03:00:24.648Z,94.90
2018-09-04T03:01:24.654Z,121.30
2018-09-04T03:02:24.635Z,122.70
2018-09-04T03:03:24.639Z,120.70
2018-09-04T03:04:24.617Z,141.90
2018-09-04T03:05:24.603Z,139.10
2018-09-04T03:06:24.582Z,142.70
2018-09-04T03:07:24.573Z,129.90
2018-09-04T03:08:24.585Z,120.40
2018-09-04T03:09:24.601Z,126.80
2018-09-04T03:10:24.544Z,134.30
2018-09-04T03:11:24.530Z,133.00
2018-09-04T03:12:24.518Z,111.70
2018-09-04T03:13:24.606Z,105.80
2018-09-04T03:14:24.496Z,112.10
2018-09-04T03:15:24.529Z,116.90
2018-09-04T03:16:24.488Z,114.30
2018-09-04T03:17:24.479Z,112.70
2018-09-04T03:18:24.477Z,112.90
2018-09-04T03:19:24.467Z,116.70
2018-09-04T03:20:24.443Z,106.40
2018-09-04T03:21:24.458Z,109.90
2018-09-04T03:22:24.439Z,128.20
2018-09-04T03:23:24.437Z,119.80
2018-09-04T03:24:24.388Z,130.80
2018-09-04T03:25:24.377Z,136.40
2018-09-04T03:26:24.384Z,142.30
2018-09-04T03:27:24.361Z,137.70
2018-09-04T03:28:24.440Z,118.00
2018-09-04T03:29:24.334Z,143.70
2018-09-04T03:30:24.357Z,132.50
2018-09-04T03:31:24.329Z,128.60
2018-09-04T03:32:24.328Z,124.10
2018-09-04T03:33:24.322Z,132.70
2018-09-04T03:34:24.281Z,150.70
2018-09-04T03:35:24.300Z,137.60
2018-09-04T03:36:24.259Z,142.10
2018-09-04T03:37:24.251Z,145.00
2018-09-04T03:38:24.269Z,126.10
2018-09-04T03:39:24.236Z,116.30
2018-09-04T03:40:24.285Z,116.70
2018-09-04T03:41:24.333Z,121.10
2018-09-04T03:42:24.228Z,111.50
2018-09-04T03:43:24.226Z,119.30
2018-09-04T03:44:24.247Z,118.00
2018-09-04T03:45:24.169Z,145.40
2018-09-04T03:46:24.194Z,143.20
2018-09-04T03:47:24.143Z,142.30
2018-09-04T03:48:24.154Z,150.50
2018-09-04T03:49:24.122Z,139.00
2018-09-04T03:50:24.115Z,144.50
2018-09-04T03:51:24.137Z,141.50
2018-09-04T03:52:24.132Z,158.80
2018-09-04T03:53:24.102Z,137.70
2018-09-04T03:54:24.076Z,125.50
2018-09-04T03:55:24.063Z,127.50
2018-09-04T03:56:24.057Z,138.10
2018-09-04T03:57:24.073Z,134.70
2018-09-04T03:58:24.049Z,142.30
2018-09-04T03:59:24.038Z,137.60
2018-09-04T04:00:24.010Z,175.20
2018-09-04T04:01:24.016Z,153.30
2018-09-04T04:02:23.987Z,182.20
2018-09-04T04:03:24.004Z,187.20
2018-09-04T04:04:24.011Z,145.80
2018-09-04T04:05:23.949Z,149.30
2018-09-04T04:06:23.937Z,148.80
2018-09-04T04:07:23.929Z,129.90
2018-09-04T04:08:23.950Z,136.90
2018-09-04T04:09:23.917Z,142.80
2018-09-04T04:10:23.926Z,144.20
2018-09-04T04:11:23.889Z,144.20
2018-09-04T04:12:23.931Z,130.20
2018-09-04T04:13:23.899Z,130.20
2018-09-04T04:14:23.857Z,126.60
2018-09-04T04:15:23.841Z,140.90
2018-09-04T04:16:23.848Z,143.00
2018-09-04T04:17:23.838Z,110.80
2018-09-04T04:18:23.835Z,138.10
2018-09-04T04:19:23.847Z,132.60
2018-09-04T04:20:23.790Z,128.10
2018-09-04T04:21:23.786Z,124.80
2018-09-04T04:22:23.765Z,117.40
2018-09-04T04:23:23.789Z,122.40
2018-09-04T04:24:23.765Z,106.70
2018-09-04T04:25:23.803Z,102.50
2018-09-04T04:26:23.740Z,104.40
2018-09-04T04:27:23.762Z,103.00
2018-09-04T04:28:23.739Z,89.90
2018-09-04T04:29:23.695Z,98.50
2018-09-04T04:30:23.687Z,92.10
2018-09-04T04:31:23.744Z,94.70
2018-09-04T04:32:23.691Z,83.20
2018-09-04T04:33:23.682Z,90.80
2018-09-04T04:34:23.657Z,89.60
2018-09-04T04:35:23.682Z,89.30
2018-09-04T04:36:23.618Z,83.80
2018-09-04T04:37:23.618Z,77.70
2018-09-04T04:38:23.632Z,85.60
2018-09-04T04:39:23.591Z,75.10
2018-09-04T04:40:23.580Z,71.30
2018-09-04T04:41:23.681Z,73.00
2018-09-04T04:42:23.555Z,73.20
2018-09-04T04:43:23.569Z,83.30
2018-09-04T04:44:23.532Z,79.90
2018-09-04T04:45:23.525Z,72.60
2018-09-04T04:46:23.509Z,73.80
2018-09-04T04:47:23.515Z,74.10
2018-09-04T04:48:23.584Z,74.70
2018-09-04T04:49:23.481Z,73.90
2018-09-04T04:50:23.475Z,74.60
2018-09-04T04:51:23.460Z,74.60
2018-09-04T04:52:23.462Z,83.60
2018-09-04T04:53:23.471Z,85.40
2018-09-04T04:54:23.454Z,80.80
2018-09-04T04:55:23.441Z,82.50
2018-09-04T04:56:23.401Z,79.40
2018-09-04T04:57:23.390Z,75.00
2018-09-04T04:58:23.385Z,74.90
2018-09-04T04:59:23.538Z,78.50
2018-09-04T05:00:23.433Z,74.50
2018-09-04T05:01:23.451Z,73.50
2018-09-04T05:02:23.358Z,67.90
2018-09-04T05:03:23.326Z,69.50
2018-09-04T05:04:23.348Z,76.00
2018-09-04T05:05:23.326Z,74.50
2018-09-04T05:06:23.296Z,75.50
2018-09-04T05:07:23.298Z,75.30
2018-09-04T05:08:23.300Z,79.60
2018-09-04T05:09:23.329Z,69.40
2018-09-04T05:10:23.272Z,71.20
2018-09-04T05:11:23.262Z,77.10
2018-09-04T05:12:23.250Z,75.00
2018-09-04T05:13:23.218Z,73.30
2018-09-04T05:14:23.256Z,72.90
2018-09-04T05:15:23.206Z,69.20
2018-09-04T05:16:23.185Z,62.80
2018-09-04T05:17:23.179Z,61.00
2018-09-04T05:18:23.165Z,60.60
2018-09-04T05:19:23.160Z,64.40
2018-09-04T05:20:23.196Z,63.40
2018-09-04T05:21:23.134Z,58.80
2018-09-04T05:22:23.128Z,70.30
2018-09-04T05:23:23.121Z,73.20
2018-09-04T05:24:23.104Z,72.80
2018-09-04T05:25:23.117Z,64.40
2018-09-04T05:26:23.114Z,64.50
2018-09-04T05:27:23.088Z,59.60
2018-09-04T05:28:23.056Z,63.90
2018-09-04T05:29:23.071Z,60.90
2018-09-04T05:30:23.060Z,66.70
2018-09-04T05:31:23.033Z,68.30
2018-09-04T05:32:23.063Z,69.50
2018-09-04T05:33:23.002Z,72.40
2018-09-04T05:34:22.992Z,78.20
2018-09-04T05:35:23.024Z,83.10
2018-09-04T05:36:22.977Z,76.60
2018-09-04T05:37:22.959Z,79.60
2018-09-04T05:38:23.011Z,78.60
2018-09-04T05:39:22.942Z,77.90
2018-09-04T05:40:22.991Z,76.40
2018-09-04T05:41:22.933Z,69.00
2018-09-04T05:42:22.917Z,68.10
2018-09-04T05:43:22.896Z,65.90
2018-09-04T05:44:22.885Z,62.30
2018-09-04T05:45:22.877Z,70.60
2018-09-04T05:46:22.935Z,64.60
2018-09-04T05:47:22.855Z,68.40
2018-09-04T05:48:22.855Z,69.20
2018-09-04T05:49:22.862Z,68.40
2018-09-04T05:50:22.819Z,62.50
2018-09-04T05:51:22.840Z,63.60
2018-09-04T05:52:22.820Z,66.40
2018-09-04T05:53:22.783Z,69.00
2018-09-04T05:54:22.794Z,66.60
2018-09-04T05:55:22.769Z,67.40
2018-09-04T05:56:22.753Z,63.90
2018-09-04T05:57:22.767Z,60.50
2018-09-04T05:58:22.755Z,61.80
2018-09-04T05:59:22.733Z,72.30
2018-09-04T06:00:22.711Z,80.20
2018-09-04T06:01:22.698Z,76.80
2018-09-04T06:02:22.746Z,69.50
2018-09-04T06:03:22.677Z,64.60
2018-09-04T06:04:22.679Z,67.50
2018-09-04T06:05:22.655Z,64.90
2018-09-04T06:06:22.651Z,67.70
2018-09-04T06:07:22.647Z,74.50
2018-09-04T06:08:22.675Z,78.80
2018-09-04T06:09:22.623Z,72.30
2018-09-04T06:10:22.601Z,89.90
2018-09-04T06:11:22.637Z,80.90
2018-09-04T06:12:22.577Z,82.80
2018-09-04T06:13:22.604Z,78.60
2018-09-04T06:14:22.561Z,68.60
2018-09-04T06:15:22.545Z,66.90
2018-09-04T06:16:22.534Z,63.70
2018-09-04T06:17:22.524Z,64.20
2018-09-04T06:18:22.562Z,55.70
2018-09-04T06:19:22.535Z,57.60
2018-09-04T06:20:22.591Z,58.80
2018-09-04T06:21:22.486Z,56.20
2018-09-04T06:22:22.478Z,58.70
2018-09-04T06:23:22.463Z,55.90
2018-09-04T06:24:22.488Z,57.30
2018-09-04T06:25:22.440Z,54.30
2018-09-04T06:26:22.428Z,56.80
2018-09-04T06:27:22.457Z,57.00
2018-09-04T06:28:22.466Z,55.00
2018-09-04T06:29:22.477Z,49.20
2018-09-04T06:30:22.391Z,50.10
2018-09-04T06:31:22.374Z,49.00
2018-09-04T06:32:22.366Z,46.10
2018-09-04T06:33:22.353Z,53.80
2018-09-04T06:34:22.404Z,47.70
2018-09-04T06:35:22.338Z,47.80
2018-09-04T06:36:22.326Z,47.60
2018-09-04T06:37:22.310Z,46.30
2018-09-04T06:38:22.303Z,49.70
2018-09-04T06:39:22.302Z,50.90
2018-09-04T06:40:22.316Z,47.80
2018-09-04T06:41:22.292Z,48.00
2018-09-04T06:42:22.296Z,46.30
2018-09-04T06:43:22.250Z,48.20
2018-09-04T06:44:22.266Z,48.70
2018-09-04T06:45:22.264Z,45.30
2018-09-04T06:46:22.233Z,42.30
2018-09-04T06:47:22.220Z,42.00
2018-09-04T06:48:22.201Z,47.10
2018-09-04T06:49:22.184Z,45.20
2018-09-04T06:50:22.248Z,47.30
2018-09-04T06:51:22.293Z,46.20
2018-09-04T06:52:22.151Z,44.40
2018-09-04T06:53:22.143Z,49.70
2018-09-04T06:54:22.150Z,42.70
2018-09-04T06:55:22.150Z,42.30
2018-09-04T06:56:22.107Z,43.00
2018-09-04T06:57:22.129Z,47.30
2018-09-04T06:58:22.085Z,44.50
2018-09-04T06:59:22.093Z,42.40
2018-09-04T07:00:22.092Z,40.20
2018-09-04T07:01:22.051Z,46.40
2018-09-04T07:02:22.054Z,46.30
2018-09-04T07:03:22.037Z,41.60
2018-09-04T07:04:22.043Z,45.30
2018-09-04T07:05:22.033Z,40.90
2018-09-04T07:06:22.013Z,40.50
2018-09-04T07:07:21.987Z,43.10
2018-09-04T07:08:21.975Z,42.70
2018-09-04T07:09:21.976Z,40.80
2018-09-04T07:10:21.998Z,37.70
2018-09-04T07:11:21.945Z,40.50
2018-09-04T07:12:21.934Z,38.70
2018-09-04T07:13:21.925Z,40.20
2018-09-04T07:14:21.915Z,40.50
2018-09-04T07:15:21.931Z,40.00
2018-09-04T07:16:21.912Z,39.60
2018-09-04T07:17:21.888Z,42.80
2018-09-04T07:18:21.938Z,41.60
2018-09-04T07:19:21.858Z,37.30
2018-09-04T07:20:21.923Z,41.90
2018-09-04T07:21:21.839Z,41.70
2018-09-04T07:22:21.864Z,41.60
2018-09-04T07:23:21.859Z,39.70
2018-09-04T07:24:21.890Z,43.20
2018-09-04T07:25:21.818Z,41.50
2018-09-04T07:26:21.787Z,42.60
2018-09-04T07:27:21.773Z,49.50
2018-09-04T07:28:21.785Z,43.60
2018-09-04T07:29:21.788Z,45.10
2018-09-04T07:30:21.769Z,44.10
2018-09-04T07:31:21.731Z,49.40
2018-09-04T07:32:21.733Z,47.60
2018-09-04T07:33:21.713Z,48.20
2018-09-04T07:34:21.711Z,46.30
2018-09-04T07:35:21.731Z,44.90
2018-09-04T07:36:21.743Z,49.40
2018-09-04T07:37:21.672Z,49.70
2018-09-04T07:38:21.655Z,51.30
2018-09-04T07:39:21.646Z,44.60
2018-09-04T07:40:21.663Z,50.40
2018-09-04T07:41:21.628Z,49.20
2018-09-04T07:42:21.621Z,53.90
2018-09-04T07:43:21.634Z,54.50
2018-09-04T07:44:21.593Z,50.60
2018-09-04T07:45:21.628Z,49.60
2018-09-04T07:46:21.586Z,52.40
2018-09-04T07:47:21.560Z,47.10
2018-09-04T07:48:21.556Z,49.90
2018-09-04T07:49:21.542Z,51.80
2018-09-04T07:50:21.588Z,48.20
2018-09-04T07:51:21.566Z,48.80
2018-09-04T07:52:21.511Z,46.90
2018-09-04T07:53:21.503Z,47.70
2018-09-04T07:54:21.501Z,49.90
2018-09-04T07:55:21.565Z,49.40
2018-09-04T07:56:21.467Z,49.80
2018-09-04T07:57:21.467Z,51.20
2018-09-04T07:58:21.486Z,46.90
2018-09-04T07:59:21.466Z,52.60
2018-09-04T08:00:21.450Z,48.00
2018-09-04T08:01:21.415Z,48.70
2018-09-04T08:02:21.415Z,47.40
2018-09-04T08:03:21.394Z,53.50
2018-09-04T08:04:21.380Z,49.70
2018-09-04T08:05:21.395Z,43.70
2018-09-04T08:06:21.360Z,45.00
2018-09-04T08:07:21.375Z,45.30
2018-09-04T08:08:21.350Z,43.10
2018-09-04T08:09:21.332Z,45.50
2018-09-04T08:10:21.370Z,42.50
2018-09-04T08:11:21.305Z,41.60
2018-09-04T08:12:21.296Z,40.60
2018-09-04T08:13:21.286Z,47.40
2018-09-04T08:14:21.280Z,47.60
2018-09-04T08:15:21.291Z,44.80
2018-09-04T08:16:21.297Z,39.80
2018-09-04T08:17:21.261Z,43.20
2018-09-04T08:18:21.254Z,43.50
2018-09-04T08:19:21.243Z,41.80
2018-09-04T08:20:21.335Z,41.90
2018-09-04T08:21:21.210Z,41.50
2018-09-04T08:22:21.193Z,39.40
2018-09-04T08:23:21.183Z,40.70
2018-09-04T08:24:21.167Z,40.60
2018-09-04T08:25:21.195Z,42.40
2018-09-04T08:26:21.168Z,42.30
2018-09-04T08:27:21.145Z,39.40
2018-09-04T08:28:21.144Z,39.00
2018-09-04T08:29:21.115Z,40.80
2018-09-04T08:30:21.124Z,40.80
2018-09-04T08:31:21.129Z,38.90
2018-09-04T08:32:21.080Z,41.10
2018-09-04T08:33:21.173Z,39.70
2018-09-04T08:34:21.059Z,41.50
2018-09-04T08:35:21.074Z,39.30
2018-09-04T08:36:21.058Z,37.50
2018-09-04T08:37:21.032Z,38.30
2018-09-04T08:38:21.055Z,36.60
2018-09-04T08:39:21.009Z,38.00
2018-09-04T08:40:21.047Z,34.70
2018-09-04T08:41:20.990Z,34.30
2018-09-04T08:42:20.985Z,31.50
2018-09-04T08:43:20.970Z,30.50
2018-09-04T08:44:20.961Z,34.10
2018-09-04T08:45:20.981Z,36.60
2018-09-04T08:46:20.983Z,33.50
2018-09-04T08:47:21.013Z,38.90
2018-09-04T08:48:20.914Z,33.90
2018-09-04T08:49:20.926Z,33.10
2018-09-04T08:50:20.889Z,31.90
2018-09-04T08:51:20.922Z,29.70
2018-09-04T08:52:20.879Z,27.10
2018-09-04T08:53:20.876Z,28.20
2018-09-04T08:54:20.851Z,29.50
2018-09-04T08:55:20.978Z,31.50
2018-09-04T08:56:20.886Z,29.50
2018-09-04T08:57:20.842Z,29.40
2018-09-04T08:58:20.803Z,30.00
2018-09-04T08:59:20.800Z,30.50
2018-09-04T09:00:20.780Z,31.50
2018-09-04T09:01:20.803Z,26.30
2018-09-04T09:02:20.766Z,29.50
2018-09-04T09:03:20.755Z,28.10
2018-09-04T09:04:20.759Z,31.30
2018-09-04T09:05:20.785Z,29.30
2018-09-04T09:06:20.744Z,28.40
2018-09-04T09:07:20.774Z,27.40
2018-09-04T09:08:20.696Z,25.30
2018-09-04T09:09:20.688Z,26.40
2018-09-04T09:10:20.687Z,26.30
2018-09-04T09:11:20.696Z,25.90
2018-09-04T09:12:20.673Z,25.20
2018-09-04T09:13:20.643Z,24.40
2018-09-04T09:14:20.635Z,25.90
2018-09-04T09:15:20.673Z,26.90
2018-09-04T09:16:20.645Z,26.60
2018-09-04T09:17:20.604Z,25.20
2018-09-04T09:18:20.591Z,24.60
2018-09-04T09:19:20.581Z,23.00
2018-09-04T09:20:20.597Z,24.00
2018-09-04T09:21:20.581Z,21.20
2018-09-04T09:22:20.550Z,22.20
2018-09-04T09:23:20.540Z,20.90
2018-09-04T09:24:20.525Z,23.90
2018-09-04T09:25:20.516Z,23.70
2018-09-04T09:26:20.562Z,21.80
2018-09-04T09:27:20.517Z,19.90
2018-09-04T09:28:20.485Z,25.00
2018-09-04T09:29:20.471Z,25.30
2018-09-04T09:30:20.462Z,22.30
2018-09-04T09:31:20.465Z,25.10
2018-09-04T09:32:20.480Z,25.20
2018-09-04T09:33:20.455Z,20.50
2018-09-04T09:34:20.430Z,23.10
2018-09-04T09:35:20.538Z,20.90
2018-09-04T09:36:20.404Z,17.80
2018-09-04T09:37:20.389Z,19.10
2018-09-04T09:38:20.403Z,17.90
2018-09-04T09:39:20.372Z,17.30
2018-09-04T09:40:20.356Z,19.10
2018-09-04T09:41:20.351Z,19.60
2018-09-04T09:42:20.350Z,17.40
2018-09-04T09:43:20.356Z,18.80
2018-09-04T09:44:20.332Z,19.30
2018-09-04T09:45:20.351Z,17.40
2018-09-04T09:46:20.291Z,19.50
2018-09-04T09:47:20.298Z,17.20
2018-09-04T09:48:20.305Z,18.10
2018-09-04T09:49:20.262Z,17.50
2018-09-04T09:50:20.300Z,15.70
2018-09-04T09:51:20.240Z,17.70
2018-09-04T09:52:20.226Z,17.70
2018-09-04T09:53:20.394Z,18.10
2018-09-04T09:54:20.219Z,18.00
2018-09-04T09:55:20.199Z,15.10
2018-09-04T09:56:20.303Z,16.70
2018-09-04T09:57:20.182Z,18.60
2018-09-04T09:58:20.254Z,17.40
2018-09-04T09:59:20.174Z,19.70
2018-09-04T10:00:20.184Z,18.00
2018-09-04T10:01:20.182Z,19.30
2018-09-04T10:02:20.122Z,17.70
2018-09-04T10:03:20.136Z,18.00
2018-09-04T10:04:20.100Z,18.70
2018-09-04T10:05:20.096Z,17.50
2018-09-04T10:06:20.077Z,15.60
2018-09-04T10:07:20.128Z,17.10
2018-09-04T10:08:20.133Z,16.60
2018-09-04T10:09:20.080Z,17.80
2018-09-04T10:10:20.061Z,18.00
2018-09-04T10:11:20.051Z,16.50
2018-09-04T10:12:20.019Z,17.50
2018-09-04T10:13:20.056Z,15.30
2018-09-04T10:14:19.995Z,17.60
2018-09-04T10:15:20.007Z,15.60
2018-09-04T10:16:19.978Z,13.80
2018-09-04T10:17:19.970Z,15.10
2018-09-04T10:18:19.983Z,15.30
2018-09-04T10:19:20.704Z,15.20
2018-09-04T10:20:19.941Z,16.70
2018-09-04T10:21:19.958Z,14.90
2018-09-04T10:22:19.917Z,14.90
2018-09-04T10:23:19.926Z,15.30
2018-09-04T10:24:19.953Z,17.10
2018-09-04T10:25:19.889Z,17.20
2018-09-04T10:26:19.897Z,15.00
2018-09-04T10:27:19.865Z,14.70
2018-09-04T10:28:19.878Z,11.70
2018-09-04T10:29:19.874Z,11.40
2018-09-04T10:30:19.824Z,12.70
2018-09-04T10:31:19.857Z,12.40
2018-09-04T10:32:19.803Z,13.40
2018-09-04T10:33:19.808Z,16.10
2018-09-04T10:34:19.872Z,13.10
2018-09-04T10:35:19.780Z,12.40
2018-09-04T10:36:19.779Z,14.20
2018-09-04T10:37:19.754Z,13.00
2018-09-04T10:38:19.775Z,13.40
2018-09-04T10:39:19.744Z,13.90
2018-09-04T10:40:19.755Z,13.40
2018-09-04T10:41:19.736Z,13.50
2018-09-04T10:42:19.728Z,11.20
2018-09-04T10:43:19.692Z,11.80
2018-09-04T10:44:19.784Z,12.20
2018-09-04T10:45:19.695Z,11.40
2018-09-04T10:46:19.693Z,11.00
2018-09-04T10:47:19.663Z,11.40
2018-09-04T10:48:19.637Z,11.10
2018-09-04T10:49:19.655Z,9.20
2018-09-04T10:50:19.661Z,10.40
2018-09-04T10:51:19.609Z,9.90
2018-09-04T10:52:19.595Z,9.70
2018-09-04T10:53:19.594Z,10.20
2018-09-04T10:54:19.575Z,12.30
2018-09-04T10:55:19.644Z,10.70
2018-09-04T10:56:19.585Z,7.90
2018-09-04T10:57:19.543Z,7.50
2018-09-04T10:58:19.532Z,7.70
2018-09-04T10:59:19.521Z,6.50
2018-09-04T11:00:19.517Z,9.10
2018-09-04T11:01:19.513Z,7.60
2018-09-04T11:02:19.553Z,7.60
2018-09-04T11:03:19.479Z,8.60
2018-09-04T11:04:19.559Z,8.50
2018-09-04T11:05:19.468Z,7.50
2018-09-04T11:06:19.450Z,6.50
2018-09-04T11:07:19.542Z,6.00
2018-09-04T11:08:19.427Z,6.40
2018-09-04T11:09:19.501Z,6.20
2018-09-04T11:10:19.405Z,7.00
2018-09-04T11:11:19.401Z,6.40
2018-09-04T11:12:19.408Z,7.70
2018-09-04T11:13:19.410Z,10.70
2018-09-04T11:14:19.361Z,10.20
2018-09-04T11:15:19.353Z,8.90
2018-09-04T11:16:19.340Z,8.70
2018-09-04T11:17:19.363Z,8.60
2018-09-04T11:18:19.331Z,10.50
2018-09-04T11:19:19.400Z,11.20
2018-09-04T11:20:19.302Z,10.40
2018-09-04T11:21:19.312Z,12.20
2018-09-04T11:22:19.319Z,12.00
2018-09-04T11:23:19.316Z,9.70
2018-09-04T11:24:19.280Z,15.40
2018-09-04T11:25:19.288Z,11.30
2018-09-04T11:26:19.293Z,11.90
2018-09-04T11:27:19.224Z,10.40
2018-09-04T11:28:19.246Z,8.70
2018-09-04T11:29:19.203Z,9.00
2018-09-04T11:30:19.340Z,9.60
2018-09-04T11:31:19.184Z,9.90
2018-09-04T11:32:19.218Z,8.50
2018-09-04T11:33:19.185Z,8.00
2018-09-04T11:34:19.157Z,9.60
2018-09-04T11:35:19.148Z,9.10
2018-09-04T11:36:19.146Z,8.40
2018-09-04T11:37:19.119Z,7.80
2018-09-04T11:38:19.137Z,8.40
2018-09-04T11:39:19.111Z,7.70
2018-09-04T11:40:19.102Z,9.00
2018-09-04T11:41:19.087Z,9.50
2018-09-04T11:42:19.070Z,8.50
2018-09-04T11:43:19.090Z,9.60
2018-09-04T11:44:19.055Z,8.90
2018-09-04T11:45:19.038Z,7.80
2018-09-04T11:46:19.036Z,9.70
2018-09-04T11:47:19.019Z,8.20
2018-09-04T11:48:19.040Z,8.00
2018-09-04T11:49:19.073Z,9.90
2018-09-04T11:50:19.011Z,8.10
2018-09-04T11:51:18.985Z,9.40
2018-09-04T11:52:18.993Z,9.00
2018-09-04T11:53:18.985Z,8.40
2018-09-04T11:54:18.948Z,8.40
2018-09-04T11:55:18.932Z,8.10
2018-09-04T11:56:18.925Z,6.80
2018-09-04T11:57:18.928Z,8.30
2018-09-04T11:58:18.924Z,8.30
2018-09-04T11:59:18.890Z,10.20
2018-09-04T12:00:18.898Z,10.80
2018-09-04T12:01:18.871Z,8.60
2018-09-04T12:02:18.939Z,8.20
2018-09-04T12:03:18.876Z,7.10
2018-09-04T12:04:18.841Z,7.40
2018-09-04T12:05:18.838Z,8.00
2018-09-04T12:06:18.884Z,7.60
2018-09-04T12:07:18.816Z,6.80
2018-09-04T12:08:18.866Z,6.70
2018-09-04T12:09:18.917Z,6.40
2018-09-04T12:10:18.779Z,7.40
2018-09-04T12:11:18.770Z,8.20
2018-09-04T12:12:18.849Z,6.50
2018-09-04T12:13:18.778Z,8.00
2018-09-04T12:14:18.799Z,7.40
2018-09-04T12:15:18.732Z,6.10
2018-09-04T12:16:18.953Z,6.10
2018-09-04T12:17:18.712Z,8.10
2018-09-04T12:18:18.700Z,5.60
2018-09-04T12:19:18.827Z,6.70
2018-09-04T12:20:18.680Z,6.30
2018-09-04T12:21:18.784Z,6.10
2018-09-04T12:22:18.657Z,6.20
2018-09-04T12:23:18.650Z,8.40
2018-09-04T12:24:18.664Z,7.40
2018-09-04T12:25:18.628Z,6.80
2018-09-04T12:26:18.621Z,7.90
2018-09-04T12:27:18.707Z,6.50
2018-09-04T12:28:18.599Z,7.20
2018-09-04T12:29:18.628Z,7.60
2018-09-04T12:30:18.577Z,6.20
2018-09-04T12:31:18.566Z,7.60
2018-09-04T12:32:18.571Z,6.60
2018-09-04T12:33:18.573Z,7.70
2018-09-04T12:34:18.617Z,7.00
2018-09-04T12:35:18.534Z,7.00
2018-09-04T12:36:18.518Z,7.80
2018-09-04T12:37:18.533Z,6.40
2018-09-04T12:38:18.507Z,7.90
2018-09-04T12:39:18.486Z,6.80
2018-09-04T12:40:18.514Z,6.90
2018-09-04T12:41:18.473Z,6.80
2018-09-04T12:42:18.468Z,6.70
2018-09-04T12:43:18.462Z,7.00
2018-09-04T12:44:18.459Z,6.80
2018-09-04T12:45:18.482Z,9.70
2018-09-04T12:46:18.416Z,6.20
2018-09-04T12:47:18.437Z,7.80
2018-09-04T12:48:18.489Z,8.10
2018-09-04T12:49:18.383Z,6.80
2018-09-04T12:50:18.411Z,6.90
2018-09-04T12:51:18.366Z,7.40
2018-09-04T12:52:18.393Z,7.40
2018-09-04T12:53:18.343Z,7.80